»·PEaware :: N630HR KOXR-KBLH

N630HR :: KOXR-KBLH

FLIGHT INFORMATION

Flight Status: Arrived
Operator: Privately registered:
United States
More flights under this callsign
Pilot: Drew L. (13237)
Aircraft: PILATUS PC-12 EAGLE
(PC12)
More flights by this aircraft type
Origin: KOXR Oxnard
United States
Destination: KBLH Blythe
United States
More flights between these airports :: More routes between these airports
Route: +FIM PMD V386 PSP BLH
File this flight plan on PilotEdge
Remarks:
Altitude:
(Current/Filed)
31,000ft
Speed:
(Current/Filed)
455kts
Departed: 08-Sep-17 04:00 PM
Arrived: 08-Sep-17 05:35 PM
Distance/Time
Traveled:
227nm/1:35
Distance/Time
To Go:
Arrived

Flight Plot

Page will automatically refresh every two minutes.

Flight plan parsing failed; only flown route is shown


Map Options




Map Legend


Flown Route
Filed Route
Departure Airport
Arrival Airport
Navaid (VOR, NDB)
Fix

Horizontal Profiles

Position Reports

Time Latitude Longitude Heading Altitude Ground
Speed
08-Sep-17 15:27 34.199351 -119.214784 359 45ft 0kts
08-Sep-17 15:28 34.199351 -119.214784 359 45ft 0kts
08-Sep-17 15:29 34.199351 -119.214784 359 45ft 0kts
08-Sep-17 15:30 34.199351 -119.214784 359 45ft 0kts
08-Sep-17 15:31 34.199351 -119.214784 359 45ft 0kts
08-Sep-17 15:32 34.199351 -119.214784 359 45ft 0kts
08-Sep-17 15:33 34.199351 -119.214784 359 45ft 0kts
08-Sep-17 15:34 34.199351 -119.214784 359 45ft 0kts
08-Sep-17 15:35 34.199351 -119.214784 359 45ft 0kts
08-Sep-17 15:36 34.199351 -119.214784 359 45ft 0kts
08-Sep-17 15:37 34.199351 -119.214784 359 45ft 0kts
08-Sep-17 15:38 34.199351 -119.214784 359 45ft 0kts
08-Sep-17 15:39 34.199351 -119.214784 359 45ft 0kts
08-Sep-17 15:40 34.199351 -119.214784 359 45ft 0kts
08-Sep-17 15:41 34.199351 -119.214784 359 45ft 0kts
08-Sep-17 15:42 34.199351 -119.214784 359 45ft 0kts
08-Sep-17 15:43 34.199351 -119.214784 359 45ft 0kts
08-Sep-17 15:44 34.199351 -119.214784 359 45ft 0kts
08-Sep-17 15:45 34.199351 -119.214784 359 45ft 0kts
08-Sep-17 15:46 34.199351 -119.214784 359 45ft 0kts
08-Sep-17 15:47 34.199351 -119.214784 359 45ft 0kts
08-Sep-17 15:48 34.199351 -119.214784 359 45ft 0kts
08-Sep-17 15:49 34.199351 -119.214784 359 45ft 0kts
08-Sep-17 15:50 34.199351 -119.214784 359 45ft 0kts
08-Sep-17 15:51 34.199351 -119.214784 359 45ft 0kts
08-Sep-17 15:52 34.199351 -119.214784 359 45ft 0kts
08-Sep-17 15:53 34.199351 -119.214784 359 45ft 0kts
08-Sep-17 15:54 34.199377 -119.214784 358 45ft 1kts
08-Sep-17 15:55 34.199820 -119.210587 92 45ft 25kts
08-Sep-17 15:56 34.199757 -119.202765 90 45ft 21kts
08-Sep-17 15:57 34.199937 -119.197533 6 45ft 0kts
08-Sep-17 15:58 34.199937 -119.197533 6 45ft 0kts
08-Sep-17 15:59 34.199937 -119.197533 6 45ft 0kts
08-Sep-17 16:00 34.199937 -119.197533 6 45ft 0kts
08-Sep-17 16:01 34.199937 -119.197533 6 45ft 0kts
08-Sep-17 16:02 34.199951 -119.197531 7 45ft 1kts
08-Sep-17 16:03 34.200734 -119.197931 269 45ft 15kts
08-Sep-17 16:04 34.199506 -119.227820 268 1602ft 110kts
08-Sep-17 16:05 34.198140 -119.256322 267 3706ft 103kts
08-Sep-17 16:06 34.197807 -119.307173 268 4976ft 170kts
08-Sep-17 16:07 34.232991 -119.324501 27 6140ft 211kts
08-Sep-17 16:08 34.253128 -119.271529 75 7117ft 217kts
08-Sep-17 16:09 34.270490 -119.202200 77 8281ft 219kts
08-Sep-17 16:10 34.290161 -119.120491 77 9577ft 221kts
08-Sep-17 16:11 34.306646 -119.060498 77 11751ft 176kts
08-Sep-17 16:12 34.323428 -119.004719 76 13163ft 183kts
08-Sep-17 16:13 34.335943 -118.956422 84 14278ft 183kts
08-Sep-17 16:14 34.351088 -118.897628 70 15544ft 190kts
08-Sep-17 16:15 34.371102 -118.839157 73 16726ft 191kts
08-Sep-17 16:16 34.390961 -118.780057 73 17817ft 194kts
08-Sep-17 16:17 34.410268 -118.722835 72 18457ft 209kts
08-Sep-17 16:18 34.432214 -118.658182 72 19293ft 212kts
08-Sep-17 16:19 34.454436 -118.592499 72 20039ft 215kts
08-Sep-17 16:20 34.476904 -118.525871 72 20721ft 218kts
08-Sep-17 16:21 34.499356 -118.459126 72 21347ft 221kts
08-Sep-17 16:22 34.521694 -118.392885 72 22243ft 209kts
08-Sep-17 16:23 34.541004 -118.335140 73 22791ft 213kts
08-Sep-17 16:24 34.561018 -118.275143 73 23316ft 216kts
08-Sep-17 16:25 34.583285 -118.208316 73 23865ft 218kts
08-Sep-17 16:26 34.605853 -118.140475 73 24380ft 220kts
08-Sep-17 16:27 34.628519 -118.072250 73 24859ft 222kts
08-Sep-17 16:28 34.626695 -118.002228 103 25301ft 212kts
08-Sep-17 16:29 34.620749 -117.938916 103 26014ft 197kts
08-Sep-17 16:30 34.614934 -117.873888 103 27002ft 197kts
08-Sep-17 16:31 34.608910 -117.807776 103 27851ft 202kts
08-Sep-17 16:32 34.602875 -117.740795 103 28690ft 205kts
08-Sep-17 16:33 34.596731 -117.672535 103 29461ft 208kts
08-Sep-17 16:34 34.590445 -117.603315 103 30173ft 211kts
08-Sep-17 16:35 34.585546 -117.548951 103 30458ft 210kts
08-Sep-17 16:36 34.578991 -117.478322 103 30884ft 216kts
08-Sep-17 16:37 34.572042 -117.404039 102 31071ft 236kts
08-Sep-17 16:38 34.564631 -117.324856 102 31062ft 253kts
08-Sep-17 16:39 34.556722 -117.239690 102 31055ft 262kts
08-Sep-17 16:40 34.548662 -117.152928 102 31044ft 259kts
08-Sep-17 16:41 34.540667 -117.068265 102 31032ft 253kts
08-Sep-17 16:42 34.532650 -116.985070 102 31013ft 250kts
08-Sep-17 16:43 34.524714 -116.903108 101 30994ft 247kts
08-Sep-17 16:44 34.512099 -116.822671 123 30988ft 241kts
08-Sep-17 16:45 34.480467 -116.751889 123 30988ft 243kts
08-Sep-17 16:46 34.442361 -116.687630 138 30988ft 238kts
08-Sep-17 16:47 34.397823 -116.630730 138 30577ft 231kts
08-Sep-17 16:48 34.353948 -116.574858 138 29545ft 233kts
08-Sep-17 16:49 34.309876 -116.519142 138 28852ft 231kts
08-Sep-17 16:50 34.266518 -116.464401 138 28229ft 228kts
08-Sep-17 16:51 34.223816 -116.410573 138 27533ft 224kts
08-Sep-17 16:52 34.181395 -116.357259 138 26821ft 222kts
08-Sep-17 16:53 34.140767 -116.306403 138 26171ft 220kts
08-Sep-17 16:54 34.099134 -116.254441 138 25523ft 216kts
08-Sep-17 16:55 34.058810 -116.204154 138 24472ft 212kts
08-Sep-17 16:56 34.020759 -116.151612 123 23372ft 214kts
08-Sep-17 16:57 34.008320 -116.082248 94 22346ft 219kts
08-Sep-17 16:58 34.010479 -116.010465 92 21362ft 216kts
08-Sep-17 16:59 34.012704 -115.940040 92 20414ft 212kts
08-Sep-17 17:00 34.014860 -115.870247 92 19503ft 209kts
08-Sep-17 17:01 34.016883 -115.801638 92 18701ft 207kts
08-Sep-17 17:02 34.018645 -115.734066 93 18042ft 203kts
08-Sep-17 17:03 34.004525 -115.671170 118 17390ft 195kts
08-Sep-17 17:04 33.980642 -115.613939 121 16762ft 193kts
08-Sep-17 17:05 33.955980 -115.558221 121 16160ft 191kts
08-Sep-17 17:06 33.931273 -115.502878 121 15578ft 189kts
08-Sep-17 17:07 33.906606 -115.447933 121 15018ft 188kts
08-Sep-17 17:08 33.883570 -115.396664 121 14839ft 182kts
08-Sep-17 17:09 33.858610 -115.341332 121 14860ft 202kts
08-Sep-17 17:10 33.832733 -115.283636 121 14859ft 196kts
08-Sep-17 17:11 33.815536 -115.223487 97 14871ft 197kts
08-Sep-17 17:12 33.812260 -115.158914 97 14878ft 195kts
08-Sep-17 17:13 33.808485 -115.094947 97 14878ft 195kts
08-Sep-17 17:14 33.804084 -115.031088 97 14878ft 194kts
08-Sep-17 17:15 33.802895 -114.966771 92 14879ft 197kts
08-Sep-17 17:16 33.802132 -114.901179 92 14879ft 199kts
08-Sep-17 17:17 33.801361 -114.835539 92 14878ft 200kts
08-Sep-17 17:18 33.800609 -114.769634 91 14878ft 200kts
08-Sep-17 17:19 33.799869 -114.703325 91 14878ft 201kts
08-Sep-17 17:20 33.800542 -114.637531 70 14859ft 203kts
08-Sep-17 17:21 33.839376 -114.592384 41 14077ft 198kts
08-Sep-17 17:22 33.880698 -114.549438 41 12967ft 199kts
08-Sep-17 17:23 33.905234 -114.499225 125 11897ft 192kts
08-Sep-17 17:24 33.865650 -114.458987 139 10916ft 188kts
08-Sep-17 17:25 33.825386 -114.424822 172 9934ft 185kts
08-Sep-17 17:26 33.776853 -114.436604 201 8828ft 180kts
08-Sep-17 17:27 33.737443 -114.451226 196 7762ft 175kts
08-Sep-17 17:28 33.694362 -114.466212 198 6693ft 159kts
08-Sep-17 17:29 33.654343 -114.481585 212 5887ft 131kts
08-Sep-17 17:30 33.646904 -114.513523 258 5827ft 83kts
08-Sep-17 17:31 33.642141 -114.540579 252 5518ft 78kts
08-Sep-17 17:32 33.637712 -114.566726 254 4348ft 83kts
08-Sep-17 17:33 33.633394 -114.592962 255 3202ft 80kts
08-Sep-17 17:34 33.629238 -114.618352 257 2076ft 78kts
08-Sep-17 17:35 33.625609 -114.640933 257 1452ft 69kts
08-Sep-17 17:36 33.621424 -114.666446 257 1096ft 87kts
08-Sep-17 17:37 33.616766 -114.692835 261 692ft 70kts
08-Sep-17 17:38 33.616597 -114.716132 265 401ft 54kts
08-Sep-17 17:39 33.615645 -114.722909 186 400ft 10kts
08-Sep-17 17:40 33.615150 -114.716547 89 400ft 25kts
08-Sep-17 17:41 33.614422 -114.710892 224 400ft 8kts
08-Sep-17 17:42 33.614275 -114.710968 191 400ft 0kts
08-Sep-17 17:43 33.614275 -114.710968 191 400ft 0kts
08-Sep-17 17:44 33.614274 -114.710970 196 400ft 0kts
08-Sep-17 17:45 33.614273 -114.710971 203 400ft 0kts
08-Sep-17 17:46 33.614272 -114.710972 210 400ft 0kts
08-Sep-17 17:47 33.614271 -114.710973 214 400ft 0kts
08-Sep-17 17:48 33.614270 -114.710974 218 400ft 0kts
08-Sep-17 17:49 33.614270 -114.710974 220 400ft 0kts
08-Sep-17 17:50 33.614270 -114.710975 221 400ft 0kts
08-Sep-17 17:51 33.614270 -114.710975 220 400ft 0kts
08-Sep-17 17:52 33.614270 -114.710975 220 400ft 0kts
08-Sep-17 17:53 33.614270 -114.710975 220 400ft 0kts

Navigation Log

Ident Type
Flight plan parsing failed, navigation log unavailable